createdAt,value
2018-12-26T00:01:55.747Z,66.25
2018-12-26T00:04:25.657Z,66.86
2018-12-26T00:06:55.556Z,67.24
2018-12-26T00:09:25.417Z,67.12
2018-12-26T00:11:55.138Z,66.83
2018-12-26T00:14:25.139Z,67.59
2018-12-26T00:17:14.178Z,67.70
2018-12-26T00:19:44.181Z,67.70
2018-12-26T00:22:14.157Z,68.09
2018-12-26T00:24:43.962Z,67.56
2018-12-26T00:27:33.257Z,67.46
2018-12-26T00:30:03.043Z,67.21
2018-12-26T00:32:32.923Z,67.17
2018-12-26T00:35:02.808Z,67.44
2018-12-26T00:37:32.636Z,66.81
2018-12-26T00:40:02.531Z,67.24
2018-12-26T00:42:32.388Z,66.79
2018-12-26T00:45:21.560Z,67.63
2018-12-26T00:48:10.757Z,67.63
2018-12-26T00:50:40.769Z,67.66
2018-12-26T00:53:29.847Z,68.33
2018-12-26T00:55:59.744Z,68.33
2018-12-26T00:58:48.996Z,68.24
2018-12-26T01:01:18.687Z,67.90
2018-12-26T01:04:07.907Z,67.89
2018-12-26T01:06:37.811Z,67.89
2018-12-26T01:09:26.980Z,68.08
2018-12-26T01:12:16.127Z,68.32
2018-12-26T01:14:58.968Z,68.97
2018-12-26T01:17:28.862Z,68.97
2018-12-26T01:19:58.907Z,69.34
2018-12-26T01:22:28.829Z,69.52
2018-12-26T01:24:58.709Z,69.48
2018-12-26T01:27:28.556Z,69.19
2018-12-26T01:29:58.506Z,69.08
2018-12-26T01:32:28.392Z,69.17
2018-12-26T01:34:58.297Z,69.16
2018-12-26T01:37:47.400Z,69.17
2018-12-26T01:40:17.237Z,69.17
2018-12-26T01:42:47.244Z,69.21
2018-12-26T01:45:36.316Z,69.49
2018-12-26T01:48:25.524Z,68.65
2018-12-26T01:51:14.575Z,68.30
2018-12-26T01:54:03.777Z,68.41
2018-12-26T01:56:33.494Z,68.41
2018-12-26T01:59:22.764Z,68.37
2018-12-26T02:02:11.977Z,68.37
2018-12-26T02:04:41.918Z,68.51
2018-12-26T02:07:11.883Z,68.66
2018-12-26T02:09:41.799Z,68.87
2018-12-26T02:12:11.628Z,69.00
2018-12-26T02:14:41.480Z,69.00
2018-12-26T02:17:11.368Z,68.89
2018-12-26T02:20:00.532Z,69.08
2018-12-26T02:22:49.598Z,69.62
2018-12-26T02:25:19.654Z,70.17
2018-12-26T02:27:49.496Z,70.62
2018-12-26T02:30:19.552Z,70.46
2018-12-26T02:32:50.341Z,70.85
2018-12-26T02:35:20.096Z,71.56
2018-12-26T02:37:50.113Z,71.97
2018-12-26T02:40:19.871Z,71.79
2018-12-26T02:42:49.781Z,71.71
2018-12-26T02:45:19.660Z,71.84
2018-12-26T02:47:49.442Z,71.92
2018-12-26T02:50:19.228Z,72.29
2018-12-26T02:52:49.039Z,72.30
2018-12-26T02:55:18.868Z,72.31
2018-12-26T02:58:07.991Z,72.57
2018-12-26T03:00:57.298Z,72.48
2018-12-26T03:03:27.227Z,72.08
2018-12-26T03:05:56.950Z,72.84
2018-12-26T03:08:27.000Z,72.85
2018-12-26T03:10:57.064Z,72.92
2018-12-26T03:13:26.979Z,72.84
2018-12-26T03:15:56.756Z,72.66
2018-12-26T03:18:26.666Z,72.47
2018-12-26T03:20:56.657Z,72.48
2018-12-26T03:23:26.529Z,72.54
2018-12-26T03:25:56.328Z,72.41
2018-12-26T03:28:26.136Z,72.29
2018-12-26T03:31:15.456Z,72.46
2018-12-26T03:36:54.641Z,72.54
2018-12-26T03:39:24.593Z,72.29
2018-12-26T03:41:54.762Z,72.34
2018-12-26T03:45:04.898Z,72.42
2018-12-26T03:48:09.459Z,72.72
2018-12-26T03:51:13.446Z,72.92
2018-12-26T03:53:43.251Z,73.17
2018-12-26T03:56:13.078Z,72.93
2018-12-26T03:58:43.107Z,72.92
2018-12-26T04:01:12.911Z,72.70
2018-12-26T04:03:42.864Z,72.39
2018-12-26T04:06:51.487Z,72.49
2018-12-26T04:09:21.259Z,72.65
2018-12-26T04:14:53.048Z,72.90
2018-12-26T04:17:23.921Z,72.54
2018-12-26T04:19:54.070Z,72.79
2018-12-26T04:22:23.962Z,72.90
2018-12-26T04:25:33.748Z,72.90
2018-12-26T04:28:03.656Z,72.71
2018-12-26T04:30:35.293Z,72.82
2018-12-26T04:33:24.497Z,72.83
2018-12-26T04:35:54.352Z,72.27
2018-12-26T04:38:24.364Z,72.36
2018-12-26T04:40:54.275Z,72.67
2018-12-26T04:43:24.056Z,72.52
2018-12-26T04:45:54.009Z,72.27
2018-12-26T04:48:23.798Z,71.76
2018-12-26T04:51:13.082Z,72.48
2018-12-26T04:53:42.872Z,73.04
2018-12-26T04:56:12.670Z,73.14
2018-12-26T04:58:42.704Z,72.27
2018-12-26T05:01:12.829Z,72.85
2018-12-26T05:04:02.164Z,72.91
2018-12-26T05:06:32.008Z,72.88
2018-12-26T05:09:01.809Z,73.10
2018-12-26T05:11:31.785Z,73.36
2018-12-26T05:14:01.624Z,73.09
2018-12-26T05:17:05.579Z,73.37
2018-12-26T05:19:35.906Z,73.54
2018-12-26T05:22:05.787Z,73.25
2018-12-26T05:24:35.605Z,73.70
2018-12-26T05:27:05.561Z,73.59
2018-12-26T05:29:35.303Z,73.65
2018-12-26T05:32:05.190Z,73.67
2018-12-26T05:34:35.001Z,73.61
2018-12-26T05:37:04.859Z,73.40
2018-12-26T05:39:34.822Z,73.28
2018-12-26T05:42:04.704Z,73.52
2018-12-26T05:44:34.535Z,73.84
2018-12-26T05:47:04.349Z,73.49
2018-12-26T05:49:34.141Z,73.46
2018-12-26T05:52:04.206Z,73.42
2018-12-26T05:54:33.970Z,73.46
2018-12-26T05:57:03.839Z,73.60
2018-12-26T05:59:33.700Z,73.73
2018-12-26T06:02:03.605Z,73.47
2018-12-26T06:04:33.406Z,73.62
2018-12-26T06:07:03.334Z,73.85
2018-12-26T06:09:33.116Z,73.23
2018-12-26T06:12:03.035Z,73.64
2018-12-26T06:15:13.033Z,73.76
2018-12-26T06:17:42.856Z,73.89
2018-12-26T06:20:32.230Z,73.67
2018-12-26T06:23:21.408Z,73.67
2018-12-26T06:26:10.545Z,73.88
2018-12-26T06:28:53.940Z,73.92
2018-12-26T06:31:23.716Z,73.92
2018-12-26T06:33:53.509Z,73.95
2018-12-26T06:36:23.286Z,73.76
2018-12-26T06:39:12.422Z,73.78
2018-12-26T06:42:01.652Z,73.78
2018-12-26T06:44:32.679Z,73.60
2018-12-26T06:47:22.339Z,73.32
2018-12-26T06:49:52.082Z,73.43
2018-12-26T06:52:54.577Z,73.30
2018-12-26T06:55:24.362Z,73.30
2018-12-26T06:58:13.561Z,73.16
2018-12-26T07:00:43.367Z,73.25
2018-12-26T07:03:32.459Z,73.71
2018-12-26T07:06:02.168Z,73.99
2018-12-26T07:08:32.345Z,73.99
2018-12-26T07:11:23.168Z,73.85
2018-12-26T07:13:52.980Z,73.85
2018-12-26T07:16:42.168Z,76.23
2018-12-26T07:19:44.340Z,73.95
2018-12-26T07:22:14.134Z,73.95
2018-12-26T07:25:03.335Z,73.08
2018-12-26T07:27:33.129Z,73.08
2018-12-26T07:30:22.428Z,71.40
2018-12-26T07:33:07.274Z,68.92
2018-12-26T07:35:56.880Z,68.23
2018-12-26T07:38:28.315Z,68.23
2018-12-26T07:40:58.037Z,68.80
2018-12-26T07:43:27.923Z,69.18
2018-12-26T07:45:57.700Z,69.18
2018-12-26T07:48:29.038Z,69.89
2018-12-26T07:51:37.794Z,70.16
2018-12-26T07:54:26.856Z,70.91
2018-12-26T07:56:56.776Z,70.91
2018-12-26T07:59:26.674Z,70.36
2018-12-26T08:02:15.768Z,70.16
2018-12-26T08:04:45.679Z,70.62
2018-12-26T08:07:34.835Z,70.62
2018-12-26T08:13:14.239Z,70.73
2018-12-26T08:15:43.971Z,71.13
2018-12-26T08:18:33.078Z,70.79
2018-12-26T08:21:02.916Z,70.79
2018-12-26T08:24:11.531Z,71.28
2018-12-26T08:26:54.613Z,71.21
2018-12-26T08:29:43.873Z,71.02
2018-12-26T08:32:33.079Z,71.02
2018-12-26T08:35:22.260Z,70.35
2018-12-26T08:38:11.501Z,70.35
2018-12-26T08:40:41.294Z,69.76
2018-12-26T08:43:11.252Z,69.89
2018-12-26T08:45:41.048Z,69.96
2018-12-26T08:48:30.361Z,69.39
2018-12-26T08:51:19.457Z,69.37
2018-12-26T08:54:08.600Z,68.53
2018-12-26T08:56:38.500Z,68.53
2018-12-26T08:59:08.469Z,68.07
2018-12-26T09:01:38.401Z,68.58
2018-12-26T09:04:08.198Z,68.63
2018-12-26T09:06:38.137Z,68.86
2018-12-26T09:09:07.983Z,68.87
2018-12-26T09:11:37.875Z,68.24
2018-12-26T09:14:07.755Z,68.10
2018-12-26T09:16:37.683Z,68.12
2018-12-26T09:19:07.469Z,67.42
2018-12-26T09:21:37.280Z,67.46
2018-12-26T09:24:07.184Z,66.93
2018-12-26T09:26:37.013Z,67.25
2018-12-26T09:29:26.215Z,67.25
2018-12-26T09:31:56.097Z,67.05
2018-12-26T09:34:25.870Z,66.79
2018-12-26T09:37:15.075Z,66.29
2018-12-26T09:39:44.867Z,65.69
2018-12-26T09:42:14.794Z,65.86
2018-12-26T09:48:06.255Z,65.49
2018-12-26T09:50:36.459Z,64.70
2018-12-26T09:53:06.306Z,64.06
2018-12-26T09:56:16.065Z,64.13
2018-12-26T09:58:52.434Z,64.00
2018-12-26T10:01:36.813Z,63.96
2018-12-26T10:04:06.607Z,63.93
2018-12-26T10:06:55.897Z,63.64
2018-12-26T10:09:25.731Z,63.64
2018-12-26T10:12:15.019Z,63.67
2018-12-26T10:14:44.847Z,63.54
2018-12-26T10:17:14.555Z,66.76
2018-12-26T10:22:25.495Z,62.63
2018-12-26T10:24:55.288Z,63.12
2018-12-26T10:30:26.848Z,63.29
2018-12-26T10:32:56.620Z,63.29
2018-12-26T10:35:26.425Z,63.64
2018-12-26T10:37:56.323Z,63.78
2018-12-26T10:40:26.073Z,63.56
2018-12-26T10:42:55.946Z,64.11
2018-12-26T10:45:25.698Z,64.16
2018-12-26T10:47:55.546Z,64.61
2018-12-26T10:50:25.296Z,64.88
2018-12-26T10:52:55.233Z,64.99
2018-12-26T10:55:44.467Z,64.94
2018-12-26T10:58:14.317Z,64.98
2018-12-26T11:00:44.132Z,65.10
2018-12-26T11:03:13.971Z,65.20
2018-12-26T11:05:43.830Z,65.45
2018-12-26T11:08:13.621Z,65.47
2018-12-26T11:10:43.476Z,65.10
2018-12-26T11:13:13.547Z,65.09
2018-12-26T11:15:43.324Z,64.39
2018-12-26T11:18:13.250Z,64.58
2018-12-26T11:20:43.048Z,65.48
2018-12-26T11:23:12.893Z,69.73
2018-12-26T11:25:42.713Z,66.44
2018-12-26T11:28:31.994Z,64.54
2018-12-26T11:31:01.842Z,64.43
2018-12-26T11:33:31.656Z,64.68
2018-12-26T11:36:01.474Z,65.11
2018-12-26T11:38:31.380Z,64.78
2018-12-26T11:41:01.309Z,64.66
2018-12-26T11:43:31.133Z,64.62
2018-12-26T11:46:01.122Z,64.54
2018-12-26T11:48:30.916Z,64.52
2018-12-26T11:51:20.084Z,64.40
2018-12-26T11:53:49.850Z,64.22
2018-12-26T11:56:19.742Z,63.54
2018-12-26T11:58:49.648Z,64.24
2018-12-26T12:01:19.445Z,64.55
2018-12-26T12:03:49.379Z,64.51
2018-12-26T12:06:19.221Z,63.35
2018-12-26T12:08:49.018Z,63.83
2018-12-26T12:11:38.390Z,63.87
2018-12-26T12:14:08.219Z,63.74
2018-12-26T12:16:37.996Z,64.07
2018-12-26T12:19:08.047Z,63.63
2018-12-26T12:21:37.954Z,63.90
2018-12-26T12:24:07.754Z,63.17
2018-12-26T12:26:49.331Z,63.19
2018-12-26T12:29:19.127Z,62.69
2018-12-26T12:31:48.956Z,62.65
2018-12-26T12:34:18.901Z,62.46
2018-12-26T12:37:08.135Z,62.78
2018-12-26T12:39:38.007Z,62.37
2018-12-26T12:42:07.813Z,62.56
2018-12-26T12:44:37.614Z,62.60
2018-12-26T12:47:07.395Z,61.81
2018-12-26T12:49:37.324Z,62.53
2018-12-26T12:52:07.189Z,63.39
2018-12-26T12:54:56.468Z,63.82
2018-12-26T12:57:27.999Z,63.94
2018-12-26T13:03:00.454Z,63.54
2018-12-26T13:05:50.852Z,62.51
2018-12-26T13:08:20.748Z,62.45
2018-12-26T13:11:10.033Z,62.77
2018-12-26T13:13:39.922Z,63.01
2018-12-26T13:16:09.766Z,63.21
2018-12-26T13:18:39.668Z,63.28
2018-12-26T13:21:09.620Z,63.71
2018-12-26T13:23:39.473Z,63.95
2018-12-26T13:26:09.339Z,63.28
2018-12-26T13:28:39.122Z,64.61
2018-12-26T13:31:08.998Z,65.28
2018-12-26T13:33:38.892Z,65.90
2018-12-26T13:36:48.610Z,66.22
2018-12-26T13:39:18.517Z,66.70
2018-12-26T13:41:48.361Z,66.93
2018-12-26T13:44:18.272Z,66.61
2018-12-26T13:46:49.956Z,66.38
2018-12-26T13:49:38.999Z,66.35
2018-12-26T13:52:08.914Z,66.51
2018-12-26T13:54:38.683Z,66.71
2018-12-26T13:57:08.535Z,66.91
2018-12-26T13:59:38.281Z,67.18
2018-12-26T14:02:08.084Z,67.05
2018-12-26T14:04:37.905Z,67.22
2018-12-26T14:07:07.755Z,66.81
2018-12-26T14:09:56.932Z,66.83
2018-12-26T14:12:26.666Z,67.06
2018-12-26T14:14:56.520Z,67.57
2018-12-26T14:17:26.584Z,67.89
2018-12-26T14:19:56.529Z,67.79
2018-12-26T14:22:26.412Z,67.96
2018-12-26T14:24:56.303Z,68.83
2018-12-26T14:27:29.534Z,69.24
2018-12-26T14:30:17.200Z,69.35
2018-12-26T14:32:47.078Z,69.62
2018-12-26T14:35:36.380Z,70.20
2018-12-26T14:38:06.260Z,70.11
2018-12-26T14:40:36.000Z,69.98
2018-12-26T14:43:05.908Z,70.07
2018-12-26T14:45:35.857Z,70.04
2018-12-26T14:48:05.722Z,69.98
2018-12-26T14:50:35.643Z,70.22
2018-12-26T14:53:05.506Z,70.41
2018-12-26T14:55:35.402Z,70.60
2018-12-26T14:58:05.180Z,70.98
2018-12-26T15:00:35.122Z,71.32
2018-12-26T15:03:04.942Z,71.57
2018-12-26T15:05:34.801Z,71.76
2018-12-26T15:08:24.035Z,72.24
2018-12-26T15:10:53.890Z,72.24
2018-12-26T15:13:23.829Z,73.04
2018-12-26T15:16:13.015Z,72.62
2018-12-26T15:18:42.946Z,72.62
2018-12-26T15:21:12.849Z,72.63
2018-12-26T15:23:42.779Z,71.42
2018-12-26T15:26:12.683Z,71.29
2018-12-26T15:28:42.590Z,72.15
2018-12-26T15:31:12.527Z,72.63
2018-12-26T15:33:42.407Z,72.81
2018-12-26T15:36:27.302Z,73.11
2018-12-26T15:38:57.192Z,73.11
2018-12-26T15:41:40.196Z,73.61
2018-12-26T15:44:29.254Z,72.84
2018-12-26T15:47:12.664Z,73.19
2018-12-26T15:50:01.809Z,73.44
2018-12-26T15:52:44.480Z,73.48
2018-12-26T15:55:14.471Z,73.48
2018-12-26T15:57:44.355Z,73.71
2018-12-26T16:00:37.602Z,77.42
2018-12-26T16:03:37.601Z,76.63
2018-12-26T16:06:07.433Z,76.63
2018-12-26T16:08:38.468Z,74.05
2018-12-26T16:11:08.399Z,73.12
2018-12-26T16:13:38.334Z,72.47
2018-12-26T16:16:08.569Z,72.04
2018-12-26T16:18:38.480Z,71.04
2018-12-26T16:21:08.598Z,71.57
2018-12-26T16:23:38.485Z,70.89
2018-12-26T16:26:08.444Z,71.09
2018-12-26T16:28:38.371Z,71.22
2018-12-26T16:31:08.269Z,70.33
2018-12-26T16:33:38.345Z,70.52
2018-12-26T16:36:08.309Z,71.49
2018-12-26T16:38:38.284Z,71.98
2018-12-26T16:41:27.521Z,71.82
2018-12-26T16:44:10.698Z,72.17
2018-12-26T16:46:40.648Z,72.17
2018-12-26T16:49:29.998Z,71.92
2018-12-26T16:52:19.667Z,72.58
2018-12-26T16:55:42.019Z,72.58
2018-12-26T17:01:00.618Z,73.94
2018-12-26T17:04:11.387Z,76.09
2018-12-26T17:07:00.651Z,76.09
2018-12-26T17:09:49.919Z,74.20
2018-12-26T17:12:19.796Z,74.20
2018-12-26T17:14:49.723Z,73.70
2018-12-26T17:17:20.577Z,75.08
2018-12-26T17:20:09.703Z,75.20
2018-12-26T17:22:52.075Z,75.02
2018-12-26T17:31:04.162Z,75.42
2018-12-26T17:36:30.658Z,75.54
2018-12-26T17:39:01.723Z,75.28
2018-12-26T17:41:32.269Z,75.32
2018-12-26T17:44:02.175Z,74.86
2018-12-26T17:46:32.094Z,74.87
2018-12-26T17:51:52.571Z,75.53
2018-12-26T17:55:23.659Z,75.65
2018-12-26T17:57:54.227Z,75.56
2018-12-26T18:01:23.812Z,75.49
2018-12-26T18:03:53.665Z,75.58
2018-12-26T18:06:24.789Z,75.76
2018-12-26T18:08:54.813Z,75.78
2018-12-26T18:11:26.389Z,76.20
2018-12-26T18:14:15.752Z,76.08
2018-12-26T18:16:46.064Z,76.70
2018-12-26T18:19:15.984Z,76.97
2018-12-26T18:21:46.210Z,77.08
2018-12-26T18:24:16.137Z,77.07
2018-12-26T18:27:14.875Z,76.75
2018-12-26T18:29:45.479Z,76.52
2018-12-26T18:35:37.488Z,75.96
2018-12-26T18:38:07.650Z,76.59
2018-12-26T18:40:38.139Z,76.49
2018-12-26T18:43:08.438Z,76.55
2018-12-26T18:45:38.349Z,76.75
2018-12-26T18:51:16.498Z,76.87
2018-12-26T18:53:47.147Z,76.95
2018-12-26T18:56:38.378Z,76.67
2018-12-26T18:59:46.188Z,76.04
2018-12-26T19:02:16.102Z,75.62
2018-12-26T19:05:45.709Z,75.94
2018-12-26T19:08:17.143Z,75.65
2018-12-26T19:10:47.107Z,75.82
2018-12-26T19:13:36.385Z,76.92
2018-12-26T19:16:28.214Z,77.84
2018-12-26T19:18:58.271Z,76.63
2018-12-26T19:21:28.259Z,76.32
2018-12-26T19:24:17.585Z,77.40
2018-12-26T19:27:07.351Z,78.18
2018-12-26T19:29:59.483Z,77.94
2018-12-26T19:33:29.720Z,77.15
2018-12-26T19:36:38.790Z,77.27
2018-12-26T19:39:08.906Z,77.17
2018-12-26T19:41:39.044Z,77.31
2018-12-26T19:45:07.107Z,77.21
2018-12-26T19:47:37.108Z,77.21
2018-12-26T19:56:15.467Z,78.82
2018-12-26T19:59:05.321Z,78.41
2018-12-26T20:01:54.543Z,78.02
2018-12-26T20:04:43.904Z,79.08
2018-12-26T20:07:33.330Z,79.18
2018-12-26T20:10:22.629Z,79.00
2018-12-26T20:15:54.483Z,79.22
2018-12-26T20:18:43.812Z,79.07
2018-12-26T20:22:14.757Z,78.87
2018-12-26T20:25:04.465Z,78.49
2018-12-26T20:27:53.527Z,85.18
2018-12-26T20:30:23.472Z,81.38
2018-12-26T20:32:53.539Z,73.74
2018-12-26T20:35:23.585Z,74.47
2018-12-26T20:37:54.522Z,74.25
2018-12-26T20:44:06.066Z,76.49
2018-12-26T20:47:14.681Z,77.62
2018-12-26T20:50:24.421Z,78.36
2018-12-26T20:53:13.843Z,78.59
2018-12-26T20:56:22.396Z,77.94
2018-12-26T20:59:11.812Z,78.11
2018-12-26T21:02:05.618Z,78.35
2018-12-26T21:04:52.202Z,78.18
2018-12-26T21:07:23.758Z,78.46
2018-12-26T21:10:13.313Z,78.59
2018-12-26T21:13:22.151Z,79.41
2018-12-26T21:16:13.322Z,78.91
2018-12-26T21:19:21.921Z,79.32
2018-12-26T21:22:11.648Z,78.61
2018-12-26T21:25:01.209Z,78.90
2018-12-26T21:28:09.750Z,79.85
2018-12-26T21:30:59.428Z,80.04
2018-12-26T21:33:48.807Z,79.91
2018-12-26T21:36:40.869Z,79.62
2018-12-26T21:39:10.832Z,78.00
2018-12-26T21:44:50.544Z,79.35
2018-12-26T21:47:39.904Z,79.57
2018-12-26T21:50:29.243Z,79.64
2018-12-26T21:53:38.824Z,80.38
2018-12-26T21:59:08.584Z,80.70
2018-12-26T22:01:38.549Z,80.31
2018-12-26T22:04:08.478Z,80.07
2018-12-26T22:06:39.988Z,79.82
2018-12-26T22:09:29.368Z,79.74
2018-12-26T22:12:18.668Z,79.47
2018-12-26T22:15:08.024Z,78.99
2018-12-26T22:17:39.546Z,78.83
2018-12-26T22:20:09.452Z,78.84
2018-12-26T22:22:58.696Z,78.94
2018-12-26T22:25:30.279Z,79.00
2018-12-26T22:28:19.549Z,78.99
2018-12-26T22:31:08.709Z,79.15
2018-12-26T22:33:38.979Z,78.87
2018-12-26T22:36:10.334Z,78.68
2018-12-26T22:38:40.166Z,78.27
2018-12-26T22:41:29.526Z,78.64
2018-12-26T22:44:18.810Z,78.82
2018-12-26T22:46:48.688Z,79.47
2018-12-26T22:49:34.328Z,79.46
2018-12-26T22:52:04.199Z,79.80
2018-12-26T22:54:54.874Z,80.09
2018-12-26T22:57:44.576Z,80.12
2018-12-26T23:03:16.540Z,79.87
2018-12-26T23:06:05.779Z,79.71
2018-12-26T23:08:55.214Z,79.19
2018-12-26T23:11:25.102Z,78.77
2018-12-26T23:13:56.929Z,79.09
2018-12-26T23:16:26.620Z,78.78
2018-12-26T23:18:58.100Z,79.08
2018-12-26T23:21:47.454Z,79.35
2018-12-26T23:24:36.685Z,79.16
2018-12-26T23:27:25.899Z,78.69
2018-12-26T23:29:55.727Z,79.37
2018-12-26T23:32:47.144Z,79.65
2018-12-26T23:35:35.956Z,80.03
2018-12-26T23:38:06.354Z,80.09
2018-12-26T23:40:36.244Z,80.19
2018-12-26T23:43:25.412Z,80.13
2018-12-26T23:46:14.767Z,80.22
2018-12-26T23:48:46.214Z,80.06
2018-12-26T23:51:35.417Z,79.82
2018-12-26T23:54:05.447Z,79.62
2018-12-26T23:56:54.781Z,79.66
2018-12-26T23:59:43.901Z,78.94
